Terminal Aerodrome Forecast
Issued by NWS Albany, NY

Home | Current Version | Previous Version | Text Only | Print | Product List | Glossary On
Versions: 1 2 3 4 5 6 7 8 9 10 11 12 13 14 15 16 17 18 19 20 21 22 23 24 25 26 27 28
000
FTUS41 KALY 240500
TAFPOU
TAF
KPOU 240538Z 2406/2506 36006KT P6SM VCSH SCT025 OVC040
      TEMPO 2406/2410 OVC025
     FM241400 34009KT P6SM OVC045
     FM242100 34007KT P6SM BKN070
     FM250100 32004KT P6SM SKC=

USA.gov is the U.S. government's official web portal to all federal, state and local government web resources and services.